Terminal Aerodrome Forecast
Issued by NWS Shreveport, LA

Home | Current Version | Previous Version | Text Only | Print | Product List | Glossary On
Versions: 1 2 3 4 5 6 7 8 9 10 11 12 13 14
000
FTUS44 KSHV 311538 AAA
TAFMLU
TAF AMD
KMLU 311538Z 3116/0112 05009G15KT P6SM SKC
     FM010000 04006KT P6SM FEW140 SCT250
     FM010600 VRB03KT P6SM SKC=

USA.gov is the U.S. government's official web portal to all federal, state and local government web resources and services.